Time;durP1;ratioP1;P1;durP2;ratioP2;P2;SDS_P1;SDS_P2;PMS_P1;PMS_P2;Temp;Humidity;BMP_temperature;BMP_pressure;BME280_temperature;BME280_humidity;BME280_pressure;Samples;Min_cycle;Max_cycle;Signal;HPM_P1;HPM_P2
2021/12/20 00:00:18;;;;;;;22.25;8.50;;;;;;;-0.36;100.00;96118.66;5001041;28;20050;-80
2021/12/20 00:03:04;;;;;;;23.95;9.48;;;;;;;-0.35;100.00;96115.06;4991822;28;20428;-80
2021/12/20 00:05:30;;;;;;;23.88;9.57;;;;;;;-0.29;100.00;96114.31;5007785;28;20038;-80
2021/12/20 00:07:56;;;;;;;23.27;9.20;;;;;;;-0.31;100.00;96100.78;5006779;28;20046;-80
2021/12/20 00:10:22;;;;;;;24.27;9.32;;;;;;;-0.37;100.00;96101.53;5008865;28;20053;-79
2021/12/20 00:12:48;;;;;;;22.95;8.98;;;;;;;-0.26;100.00;96095.88;4979652;28;20046;-79
2021/12/20 00:15:14;;;;;;;22.58;8.85;;;;;;;-0.28;100.00;96095.25;5013153;28;20527;-79
2021/12/20 00:17:40;;;;;;;25.05;8.93;;;;;;;-0.26;100.00;96097.63;5010856;28;20042;-80
2021/12/20 00:20:07;;;;;;;24.65;9.13;;;;;;;-0.34;100.00;96090.81;5006910;28;20038;-78
2021/12/20 00:22:32;;;;;;;30.35;9.23;;;;;;;-0.40;100.00;96094.16;4984167;28;20076;-78
2021/12/20 00:24:58;;;;;;;22.45;8.93;;;;;;;-0.28;100.00;96099.63;5008760;28;20112;-80
2021/12/20 00:27:23;;;;;;;25.27;8.45;;;;;;;-0.24;100.00;96090.50;5005069;28;20105;-78
2021/12/20 00:29:50;;;;;;;25.63;9.00;;;;;;;-0.36;100.00;96092.78;4995837;28;20042;-78
2021/12/20 00:32:17;;;;;;;22.95;9.45;;;;;;;-0.44;100.00;96100.69;5005965;28;20048;-80
2021/12/20 00:34:43;;;;;;;26.15;9.50;;;;;;;-0.19;100.00;96094.13;5008736;28;20096;-80
2021/12/20 00:42:43;;;;;;;24.05;8.60;;;;;;;-0.15;100.00;96091.19;5012565;28;20041;-79
2021/12/20 00:45:10;;;;;;;27.05;8.65;;;;;;;-0.10;100.00;96086.22;4991576;28;20061;-80
2021/12/20 00:47:36;;;;;;;25.85;10.15;;;;;;;-0.13;100.00;96086.59;5009124;28;20053;-79
2021/12/20 00:50:03;;;;;;;23.40;9.02;;;;;;;-0.14;100.00;96090.16;5004876;28;20035;-80
2021/12/20 00:52:29;;;;;;;24.60;8.98;;;;;;;-0.14;100.00;96090.16;5008766;28;20424;-79
2021/12/20 00:54:54;;;;;;;24.55;8.68;;;;;;;-0.09;100.00;96093.78;5003287;28;20035;-79
2021/12/20 00:57:20;;;;;;;24.58;9.43;;;;;;;-0.12;100.00;96093.38;4986598;28;20069;-79
2021/12/20 00:59:45;;;;;;;24.45;9.10;;;;;;;-0.12;100.00;96088.22;5008789;28;20048;-79
2021/12/20 01:02:11;;;;;;;19.75;7.57;;;;;;;-0.12;100.00;96088.22;5003193;28;20042;-81
2021/12/20 01:04:36;;;;;;;20.92;8.02;;;;;;;-0.17;100.00;96083.59;5011028;28;20065;-81
2021/12/20 01:07:02;;;;;;;22.75;8.45;;;;;;;-0.16;100.00;96071.47;4993088;28;20077;-81
2021/12/20 01:09:28;;;;;;;24.13;9.57;;;;;;;-0.23;100.00;96061.88;4991950;28;20046;-80
2021/12/20 01:12:01;;;;;;;25.83;8.70;;;;;;;-0.25;100.00;96074.16;5007375;28;20423;-78
2021/12/20 01:14:27;;;;;;;28.83;10.00;;;;;;;-0.33;100.00;96079.50;5012253;28;20041;-81
2021/12/20 01:16:56;;;;;;;28.77;10.82;;;;;;;-0.24;100.00;96080.97;4987974;28;20045;-79
2021/12/20 01:19:22;;;;;;;26.60;9.45;;;;;;;-0.18;100.00;96064.69;5010385;28;20054;-79
2021/12/20 01:21:48;;;;;;;28.02;9.95;;;;;;;-0.16;100.00;96068.88;4993038;28;20126;-78
2021/12/20 01:24:13;;;;;;;28.70;10.07;;;;;;;-0.30;100.00;96084.28;5011433;28;20046;-78
2021/12/20 01:26:39;;;;;;;29.42;9.98;;;;;;;-0.31;100.00;96090.44;4997120;28;20050;-81
2021/12/20 01:29:05;;;;;;;25.83;9.60;;;;;;;-0.30;100.00;96086.88;5004068;28;20053;-80
2021/12/20 01:31:30;;;;;;;29.55;10.55;;;;;;;-0.34;100.00;96085.66;5006535;28;20518;-81
2021/12/20 01:33:56;;;;;;;28.58;10.05;;;;;;;-0.20;100.00;96092.53;5008128;28;20038;-80
2021/12/20 01:36:21;;;;;;;27.10;9.55;;;;;;;-0.21;100.00;96090.94;5015723;28;20044;-78
2021/12/20 01:38:47;;;;;;;27.67;9.63;;;;;;;-0.09;100.00;96080.06;5014040;28;20045;-79
2021/12/20 01:41:13;;;;;;;25.90;9.60;;;;;;;-0.05;100.00;96078.72;5001759;28;20058;-79
2021/12/20 01:43:39;;;;;;;28.17;9.52;;;;;;;-0.04;100.00;96080.31;4986330;28;20041;-80
2021/12/20 01:46:05;;;;;;;28.50;9.25;;;;;;;-0.08;100.00;96084.28;4998818;28;20050;-80
2021/12/20 01:48:31;;;;;;;23.98;8.60;;;;;;;-0.10;100.00;96075.88;5004533;28;20111;-80
2021/12/20 01:53:26;;;;;;;22.27;9.07;;;;;;;-0.14;100.00;96082.41;5000874;28;20043;-78
2021/12/20 01:55:54;;;;;;;27.30;9.05;;;;;;;-0.12;100.00;96077.88;4995741;28;20071;-80
2021/12/20 01:58:22;;;;;;;24.75;9.27;;;;;;;-0.11;100.00;96074.28;5015407;28;20699;-80
2021/12/20 02:03:33;;;;;;;22.50;8.73;;;;;;;-0.11;100.00;96075.09;5009844;28;20598;-80
2021/12/20 02:06:03;;;;;;;26.98;9.52;;;;;;;-0.19;100.00;96073.44;5014802;28;20117;-80
2021/12/20 02:08:29;;;;;;;18.65;7.20;;;;;;;-0.07;100.00;96068.56;5011648;28;20503;-79
2021/12/20 02:11:10;;;;;;;22.98;9.15;;;;;;;-0.20;100.00;96066.66;5010565;28;20044;-79
2021/12/20 02:13:38;;;;;;;23.08;9.10;;;;;;;-0.25;100.00;96069.00;4992218;28;20519;-81
2021/12/20 02:16:04;;;;;;;23.30;9.50;;;;;;;-0.11;100.00;96069.13;4987770;28;20052;-80
2021/12/20 02:18:31;;;;;;;20.63;8.95;;;;;;;-0.13;100.00;96071.91;5000699;28;20050;-80
2021/12/20 02:20:58;;;;;;;25.17;9.45;;;;;;;-0.09;100.00;96074.91;5012757;28;20088;-80
2021/12/20 02:23:23;;;;;;;23.27;9.05;;;;;;;-0.16;100.00;96066.28;5007010;28;20038;-80
2021/12/20 02:25:49;;;;;;;24.00;8.95;;;;;;;-0.04;100.00;96069.97;5009262;28;20491;-81
2021/12/20 02:28:17;;;;;;;23.77;9.35;;;;;;;-0.20;100.00;96076.22;5011923;28;20044;-80
2021/12/20 02:38:42;;;;;;;24.02;8.93;;;;;;;-0.02;100.00;96073.16;5007388;28;20050;-80
2021/12/20 02:41:22;;;;;;;23.95;9.00;;;;;;;-0.02;100.00;96078.34;4996890;28;20038;-81
2021/12/20 02:43:55;;;;;;;22.90;9.38;;;;;;;-0.07;100.00;96070.31;5007073;28;20053;-79
2021/12/20 02:48:56;;;;;;;24.52;9.18;;;;;;;-0.01;100.00;96056.66;5000719;28;20042;-78
2021/12/20 02:51:26;;;;;;;22.35;8.82;;;;;;;-0.07;100.00;96054.78;5013036;28;20050;-78
2021/12/20 02:53:54;;;;;;;22.67;8.40;;;;;;;-0.10;100.00;96044.81;5007742;28;20034;-80
2021/12/20 02:56:20;;;;;;;23.88;7.88;;;;;;;-0.14;100.00;96053.94;5021744;28;20046;-83
2021/12/20 02:58:45;;;;;;;23.85;9.70;;;;;;;-0.16;100.00;96050.75;5026199;28;20026;-82
2021/12/20 03:01:12;;;;;;;21.75;8.60;;;;;;;-0.12;100.00;96054.56;5013290;28;20154;-81
2021/12/20 03:03:38;;;;;;;23.95;8.93;;;;;;;-0.21;100.00;96054.72;5002047;28;20069;-82
2021/12/20 03:06:20;;;;;;;24.67;9.90;;;;;;;-0.15;100.00;96052.38;5006379;28;20034;-81
2021/12/20 03:08:51;;;;;;;22.90;8.43;;;;;;;-0.29;100.00;96062.59;5010910;28;20042;-80
2021/12/20 03:11:17;;;;;;;23.30;8.30;;;;;;;-0.21;100.00;96059.88;5005958;28;20101;-81
2021/12/20 03:13:46;;;;;;;26.73;8.80;;;;;;;-0.02;100.00;96068.78;5003418;28;20543;-82
2021/12/20 03:16:11;;;;;;;23.77;9.82;;;;;;;-0.01;100.00;96064.41;5000328;28;20042;-81
2021/12/20 03:18:37;;;;;;;25.50;9.48;;;;;;;-0.03;100.00;96056.03;5008979;28;20057;-80
2021/12/20 03:21:02;;;;;;;24.88;9.20;;;;;;;-0.05;100.00;96058.00;5013675;28;20112;-81
2021/12/20 03:23:28;;;;;;;22.77;8.43;;;;;;;-0.07;100.00;96059.97;5001661;28;20049;-80
2021/12/20 03:25:54;;;;;;;24.02;9.00;;;;;;;-0.05;100.00;96063.97;5011436;28;20041;-80
2021/12/20 03:28:19;;;;;;;25.83;9.40;;;;;;;-0.04;100.00;96065.59;5012726;28;20042;-81
2021/12/20 03:30:44;;;;;;;25.17;8.63;;;;;;;-0.04;100.00;96049.28;5003720;28;20516;-80
2021/12/20 03:33:10;;;;;;;24.77;9.45;;;;;;;-0.09;100.00;96056.78;5002442;28;20046;-81
2021/12/20 03:35:36;;;;;;;28.20;9.73;;;;;;;-0.08;100.00;96064.34;5006291;28;20046;-79
2021/12/20 03:38:02;;;;;;;25.58;9.63;;;;;;;-0.25;100.00;96063.81;5011598;28;20460;-80
2021/12/20 03:40:28;;;;;;;27.00;9.40;;;;;;;-0.08;100.00;96063.56;5003160;28;20053;-82
2021/12/20 03:42:54;;;;;;;26.85;9.82;;;;;;;-0.18;100.00;96062.09;5012849;28;20034;-80
2021/12/20 03:45:19;;;;;;;24.25;10.20;;;;;;;-0.17;100.00;96062.91;5005904;28;20044;-81
2021/12/20 03:47:45;;;;;;;27.30;9.65;;;;;;;-0.19;100.00;96057.94;4987690;28;20128;-80
2021/12/20 03:50:12;;;;;;;22.23;8.73;;;;;;;-0.19;100.00;96063.09;5009070;28;20042;-79
2021/12/20 03:52:38;;;;;;;28.95;9.85;;;;;;;-0.16;100.00;96067.06;5009940;28;20046;-81
2021/12/20 03:55:10;;;;;;;24.73;9.60;;;;;;;-0.21;100.00;96064.28;5009767;28;20048;-81
2021/12/20 03:57:35;;;;;;;24.80;9.30;;;;;;;-0.19;100.00;96057.09;5010064;28;20046;-78
2021/12/20 04:00:04;;;;;;;27.13;9.57;;;;;;;-0.11;100.00;96059.56;4993674;28;20053;-80
2021/12/20 04:02:37;;;;;;;26.90;9.25;;;;;;;-0.15;100.00;96052.38;4983291;28;20267;-80
2021/12/20 04:05:03;;;;;;;25.13;8.52;;;;;;;-0.21;100.00;96054.72;5010144;28;20033;-80
2021/12/20 04:07:28;;;;;;;22.92;8.98;;;;;;;-0.15;100.00;96054.97;4994339;28;20189;-80
2021/12/20 04:09:54;;;;;;;25.45;9.40;;;;;;;-0.13;100.00;96060.72;4997444;28;20038;-78
2021/12/20 04:12:19;;;;;;;25.58;9.90;;;;;;;-0.19;100.00;96057.94;4999148;28;20137;-79
2021/12/20 04:14:44;;;;;;;23.98;8.95;;;;;;;-0.12;100.00;96057.16;5010009;28;20045;-79
2021/12/20 04:17:10;;;;;;;28.15;9.38;;;;;;;-0.05;100.00;96058.00;5008089;28;20053;-80
2021/12/20 04:19:36;;;;;;;27.35;9.98;;;;;;;-0.06;100.00;96056.41;5011641;28;20419;-79
2021/12/20 04:22:01;;;;;;;23.38;8.73;;;;;;;-0.05;100.00;96063.19;4993155;28;20042;-78
2021/12/20 04:24:27;;;;;;;24.48;8.98;;;;;;;-0.08;100.00;96063.56;4993843;28;20485;-78
2021/12/20 04:26:52;;;;;;;24.10;8.98;;;;;;;-0.08;100.00;96063.56;4988184;28;20045;-81
2021/12/20 04:29:19;;;;;;;24.33;8.73;;;;;;;-0.02;100.00;96062.81;4993221;28;20046;-80
2021/12/20 04:31:45;;;;;;;25.27;8.77;;;;;;;-0.09;100.00;96061.97;5004826;28;20041;-80
2021/12/20 04:34:11;;;;;;;25.08;8.65;;;;;;;0.00;100.00;96066.03;5005793;28;20423;-79
2021/12/20 04:36:36;;;;;;;24.90;8.50;;;;;;;-0.01;100.00;96065.19;5013279;28;20606;-78
2021/12/20 04:39:06;;;;;;;25.60;8.88;;;;;;;-0.09;100.00;96061.97;5009628;28;20135;-80
2021/12/20 04:41:31;;;;;;;26.42;8.30;;;;;;;-0.08;100.00;96068.75;5010722;28;20038;-80
2021/12/20 04:43:57;;;;;;;22.48;8.35;;;;;;;-0.05;100.00;96073.53;4996261;28;20535;-80
2021/12/20 04:46:22;;;;;;;24.38;9.10;;;;;;;-0.15;100.00;96067.91;5011662;28;20045;-80
2021/12/20 04:48:48;;;;;;;24.38;8.75;;;;;;;-0.06;100.00;96069.34;5001721;28;20042;-79
2021/12/20 04:51:13;;;;;;;21.83;8.35;;;;;;;0.05;100.00;96068.81;5013189;28;20041;-80
2021/12/20 04:53:39;;;;;;;28.30;9.07;;;;;;;-0.02;100.00;96073.16;4994946;28;20038;-80
2021/12/20 04:56:05;;;;;;;24.83;8.45;;;;;;;0.02;100.00;96079.56;4990084;28;20423;-79
2021/12/20 04:58:30;;;;;;;23.58;8.65;;;;;;;-0.19;100.00;96072.63;5007017;28;20130;-80
2021/12/20 05:00:56;;;;;;;23.88;9.27;;;;;;;-0.03;100.00;96081.91;4994876;28;20497;-80
2021/12/20 05:03:21;;;;;;;25.48;9.30;;;;;;;0.11;100.00;96088.78;4983261;28;20046;-81
2021/12/20 05:05:47;;;;;;;26.52;9.35;;;;;;;-0.07;100.00;96083.25;5015685;28;20038;-79
2021/12/20 05:08:14;;;;;;;22.80;8.30;;;;;;;0.10;100.00;96082.00;5000600;28;20054;-80
2021/12/20 05:10:41;;;;;;;22.48;7.93;;;;;;;0.08;100.00;96083.97;5000607;28;20053;-79
2021/12/20 05:13:10;;;;;;;21.98;8.10;;;;;;;0.16;100.00;96091.59;4998406;28;20046;-79
2021/12/20 05:15:36;;;;;;;23.65;8.73;;;;;;;0.07;100.00;96092.75;4999132;28;20045;-80
2021/12/20 05:18:03;;;;;;;28.80;9.15;;;;;;;0.00;100.00;96091.91;5004913;28;20065;-79
2021/12/20 05:20:29;;;;;;;23.55;8.38;;;;;;;-0.12;100.00;96103.75;5013221;28;20046;-79
2021/12/20 05:22:56;;;;;;;25.65;9.32;;;;;;;-0.09;100.00;96098.19;4993706;28;20045;-80
2021/12/20 05:25:22;;;;;;;26.20;9.65;;;;;;;-0.04;100.00;96103.59;4986230;28;20070;-81
2021/12/20 05:27:48;;;;;;;22.65;8.63;;;;;;;-0.11;100.00;96111.31;4997541;28;20034;-79
2021/12/20 05:30:14;;;;;;;23.77;9.20;;;;;;;-0.12;100.00;96114.09;5013019;28;20060;-81
2021/12/20 05:32:40;;;;;;;25.15;8.93;;;;;;;-0.02;100.00;96114.56;5006725;28;20057;-81
2021/12/20 05:35:08;;;;;;;25.17;9.02;;;;;;;0.06;100.00;96106.66;4992930;28;20424;-80
2021/12/20 05:37:34;;;;;;;22.73;9.65;;;;;;;0.06;100.00;96104.06;5015417;28;20046;-80
2021/12/20 05:40:00;;;;;;;27.05;9.57;;;;;;;-0.09;100.00;96108.53;5013282;28;20121;-80
2021/12/20 05:42:25;;;;;;;28.40;9.38;;;;;;;-0.05;100.00;96104.59;5015788;28;20046;-78
2021/12/20 05:44:51;;;;;;;23.00;9.00;;;;;;;-0.09;100.00;96113.72;5008973;28;20420;-79
2021/12/20 05:47:22;;;;;;;21.20;7.88;;;;;;;-0.05;100.00;96115.72;5009859;28;20045;-79
2021/12/20 05:49:48;;;;;;;24.17;9.20;;;;;;;0.07;100.00;96103.09;4999161;28;20100;-79
2021/12/20 05:52:14;;;;;;;23.95;9.00;;;;;;;0.24;100.00;96113.16;4999171;28;20543;-79
2021/12/20 05:54:40;;;;;;;23.02;8.10;;;;;;;0.20;100.00;96109.34;5010681;28;20037;-80
2021/12/20 05:57:06;;;;;;;24.58;9.25;;;;;;;0.10;100.00;96107.91;4995466;28;20173;-78
2021/12/20 05:59:32;;;;;;;26.98;9.65;;;;;;;0.20;100.00;96106.75;5015628;28;20076;-78
2021/12/20 06:01:57;;;;;;;24.85;9.25;;;;;;;0.20;100.00;96106.75;5011198;28;20536;-80
2021/12/20 06:04:23;;;;;;;22.42;8.40;;;;;;;0.13;100.00;96102.34;4995683;28;20042;-80
2021/12/20 06:06:49;;;;;;;23.00;9.57;;;;;;;-0.09;100.00;96113.72;4994305;28;20039;-80
2021/12/20 06:09:15;;;;;;;18.67;7.10;;;;;;;-0.09;100.00;96118.88;4994708;28;20042;-79
2021/12/20 06:11:41;;;;;;;29.98;9.68;;;;;;;-0.14;100.00;96111.69;5016993;28;20053;-80
2021/12/20 06:14:06;;;;;;;27.20;10.07;;;;;;;-0.09;100.00;96118.88;5014177;28;20042;-79
2021/12/20 06:16:32;;;;;;;27.35;9.60;;;;;;;-0.08;100.00;96120.50;5005117;28;20569;-79
2021/12/20 06:18:57;;;;;;;24.40;8.82;;;;;;;0.00;100.00;96122.94;4997991;28;20049;-80
2021/12/20 06:21:23;;;;;;;25.98;10.25;;;;;;;-0.02;100.00;96125.69;5010096;28;20053;-80
2021/12/20 06:23:49;;;;;;;26.85;9.90;;;;;;;0.03;100.00;96117.41;4991765;28;20034;-80
2021/12/20 06:26:15;;;;;;;25.98;9.77;;;;;;;0.03;100.00;96122.56;5015576;28;20108;-79
2021/12/20 06:28:41;;;;;;;24.63;9.82;;;;;;;0.01;100.00;96127.13;4992009;28;20053;-79
2021/12/20 06:31:06;;;;;;;23.27;9.40;;;;;;;-0.12;100.00;96134.78;5008807;28;20415;-80
2021/12/20 06:33:32;;;;;;;23.90;9.13;;;;;;;0.06;100.00;96127.38;4992203;28;20034;-78
2021/12/20 06:35:58;;;;;;;25.15;9.73;;;;;;;0.13;100.00;96117.88;5010153;28;20075;-79
2021/12/20 06:38:23;;;;;;;20.77;8.68;;;;;;;0.17;100.00;96128.63;5011615;28;20050;-80
2021/12/20 06:40:51;;;;;;;26.40;9.23;;;;;;;0.07;100.00;96134.16;5014395;28;20130;-79
2021/12/20 06:43:18;;;;;;;24.42;8.93;;;;;;;0.09;100.00;96124.41;5014350;28;20046;-80
2021/12/20 06:45:44;;;;;;;22.85;8.95;;;;;;;0.16;100.00;96133.00;5014272;28;20116;-81
2021/12/20 06:48:10;;;;;;;25.42;9.65;;;;;;;0.28;100.00;96135.09;4994596;28;20042;-80
2021/12/20 06:50:35;;;;;;;24.92;9.20;;;;;;;0.23;100.00;96137.44;4998602;28;20099;-81
2021/12/20 06:53:01;;;;;;;23.52;9.73;;;;;;;0.23;100.00;96132.25;5010917;28;20116;-80
2021/12/20 06:55:27;;;;;;;23.70;9.15;;;;;;;0.20;100.00;96143.00;5011938;28;20046;-79
2021/12/20 06:57:52;;;;;;;29.08;10.43;;;;;;;0.05;100.00;96141.28;4993068;28;20045;-78
2021/12/20 07:00:18;;;;;;;24.55;9.05;;;;;;;0.22;100.00;96141.03;4985827;28;20053;-81
2021/12/20 07:02:43;;;;;;;25.60;9.77;;;;;;;0.24;100.00;96144.22;4996196;28;20038;-80
2021/12/20 07:05:09;;;;;;;26.55;9.40;;;;;;;0.02;100.00;96136.50;5010254;28;20072;-81
2021/12/20 07:07:35;;;;;;;24.30;9.15;;;;;;;0.09;100.00;96142.53;5013693;28;20506;-78
2021/12/20 07:10:03;;;;;;;23.90;9.02;;;;;;;0.04;100.00;96150.03;5007334;28;20057;-80
2021/12/20 07:12:29;;;;;;;29.63;9.68;;;;;;;0.14;100.00;96150.53;5008170;28;20069;-79
2021/12/20 07:14:55;;;;;;;25.38;9.55;;;;;;;0.15;100.00;96146.94;5014152;28;20068;-80
2021/12/20 07:17:20;;;;;;;25.27;9.13;;;;;;;0.09;100.00;96127.00;4989335;28;20483;-80
2021/12/20 07:19:46;;;;;;;26.50;9.82;;;;;;;0.21;100.00;96140.22;4991283;28;20042;-77
2021/12/20 07:22:12;;;;;;;24.73;9.10;;;;;;;0.34;100.00;96142.09;4989397;28;20038;-76
2021/12/20 07:24:38;;;;;;;25.13;8.75;;;;;;;0.35;100.00;96141.13;5008207;28;20038;-78
2021/12/20 07:27:03;;;;;;;27.65;10.43;;;;;;;0.36;100.00;96147.91;5001332;28;20038;-79
2021/12/20 07:29:29;;;;;;;23.02;9.23;;;;;;;0.31;100.00;96134.72;5004168;28;20049;-78
2021/12/20 07:31:55;;;;;;;27.55;9.40;;;;;;;0.36;100.00;96147.91;4973049;28;20101;-78
2021/12/20 07:34:20;;;;;;;29.52;9.45;;;;;;;0.27;100.00;96149.81;5005352;28;20100;-80
2021/12/20 07:36:46;;;;;;;27.50;10.05;;;;;;;0.19;100.00;96152.56;5013492;28;20079;-79
2021/12/20 07:39:11;;;;;;;26.75;9.82;;;;;;;0.37;100.00;96154.66;5009736;28;20042;-78
2021/12/20 07:41:37;;;;;;;25.95;10.30;;;;;;;0.22;100.00;96151.38;4996129;28;20038;-79
2021/12/20 07:44:02;;;;;;;24.17;9.63;;;;;;;0.17;100.00;96144.97;5012085;28;20077;-80
2021/12/20 07:46:28;;;;;;;27.10;9.45;;;;;;;0.23;100.00;96158.13;5008520;28;20055;-78
2021/12/20 07:48:53;;;;;;;27.65;9.60;;;;;;;0.21;100.00;96154.94;4994742;28;20046;-77
2021/12/20 07:51:20;;;;;;;28.15;9.85;;;;;;;0.22;100.00;96156.56;5012411;28;20381;-78
2021/12/20 07:53:46;;;;;;;30.30;10.73;;;;;;;0.17;100.00;96165.69;4997126;28;20073;-77
2021/12/20 07:56:12;;;;;;;30.63;10.18;;;;;;;0.18;100.00;96156.13;4992642;28;20495;-77
2021/12/20 07:58:38;;;;;;;25.27;9.88;;;;;;;0.22;100.00;96166.91;5009993;28;20420;-76
2021/12/20 08:01:04;;;;;;;28.60;10.25;;;;;;;0.26;100.00;96168.13;5009250;28;20034;-77
2021/12/20 08:03:31;;;;;;;26.95;10.25;;;;;;;0.19;100.00;96162.09;5007518;28;20038;-76
2021/12/20 08:05:57;;;;;;;31.05;10.75;;;;;;;0.44;100.00;96163.28;5009742;28;21462;-76
2021/12/20 08:08:22;;;;;;;27.45;10.18;;;;;;;0.32;100.00;96162.22;5009216;28;20679;-76
2021/12/20 08:10:48;;;;;;;25.83;10.05;;;;;;;0.29;100.00;96162.59;5004791;28;20111;-80
2021/12/20 08:13:15;;;;;;;27.67;10.38;;;;;;;0.42;100.00;96162.66;5016003;28;20042;-80
2021/12/20 08:15:41;;;;;;;27.38;9.50;;;;;;;0.57;100.00;96165.16;5002689;28;20054;-78
2021/12/20 08:18:07;;;;;;;28.92;9.73;;;;;;;0.57;100.00;96154.78;5014776;28;20042;-77
2021/12/20 08:20:33;;;;;;;24.27;9.30;;;;;;;0.61;100.00;96165.59;5011204;28;20346;-80
2021/12/20 08:23:01;;;;;;;29.52;10.88;;;;;;;0.49;100.00;96173.88;4994856;28;20042;-83
2021/12/20 08:25:27;;;;;;;26.05;9.57;;;;;;;0.46;100.00;96165.66;4996461;28;20136;-77
2021/12/20 08:27:52;;;;;;;25.85;9.98;;;;;;;0.49;100.00;96168.69;5007903;28;20500;-76
2021/12/20 08:30:21;;;;;;;25.98;9.77;;;;;;;0.46;100.00;96163.06;5007051;28;20066;-76
2021/12/20 08:32:47;;;;;;;25.20;9.55;;;;;;;0.54;100.00;96169.91;5006852;28;20052;-76
2021/12/20 08:35:13;;;;;;;25.33;10.00;;;;;;;0.56;100.00;96162.75;4995480;28;20050;-78
2021/12/20 08:37:39;;;;;;;30.10;10.45;;;;;;;0.60;100.00;96169.16;5003259;28;20099;-76
2021/12/20 08:40:08;;;;;;;25.17;10.15;;;;;;;0.55;100.00;96176.69;5008124;28;20048;-77
2021/12/20 08:42:34;;;;;;;29.75;10.88;;;;;;;0.46;100.00;96179.44;5013346;28;20037;-82
2021/12/20 08:44:59;;;;;;;27.00;9.52;;;;;;;0.77;100.00;96186.00;5011490;28;20092;-81
2021/12/20 08:47:25;;;;;;;26.38;10.25;;;;;;;0.62;100.00;96178.34;4994636;28;20060;-79
2021/12/20 08:49:50;;;;;;;27.83;10.63;;;;;;;0.67;100.00;96181.16;5013514;28;20049;-77
2021/12/20 08:52:17;;;;;;;28.08;10.60;;;;;;;0.57;100.00;96174.72;5012710;28;20073;-77
2021/12/20 08:54:42;;;;;;;26.20;9.52;;;;;;;0.76;100.00;96179.22;4993234;28;20042;-77
2021/12/20 08:57:08;;;;;;;25.15;9.45;;;;;;;0.71;100.00;96181.59;4999880;28;20080;-77
2021/12/20 08:59:35;;;;;;;23.73;9.43;;;;;;;0.50;100.00;96185.84;5005536;28;20050;-78
2021/12/20 09:02:01;;;;;;;23.50;9.55;;;;;;;0.66;100.00;96189.13;5010070;28;20049;-78
2021/12/20 09:04:26;;;;;;;31.85;10.57;;;;;;;0.54;100.00;96186.25;5013918;28;20042;-76
2021/12/20 09:06:52;;;;;;;31.67;11.43;;;;;;;0.59;100.00;96183.09;5012268;28;20495;-76
2021/12/20 09:09:19;;;;;;;33.83;10.88;;;;;;;0.70;100.00;96190.34;5011361;28;20049;-79
2021/12/20 09:11:45;;;;;;;32.97;11.20;;;;;;;0.81;100.00;96197.59;5016075;28;20042;-79
2021/12/20 09:14:13;;;;;;;28.15;10.20;;;;;;;0.77;100.00;96195.56;5012316;28;20408;-78
2021/12/20 09:16:39;;;;;;;29.70;10.88;;;;;;;0.81;100.00;96192.41;4998703;28;20054;-80
2021/12/20 09:19:04;;;;;;;28.95;9.98;;;;;;;0.94;100.00;96190.88;5007339;28;20468;-81
2021/12/20 09:21:30;;;;;;;31.67;11.27;;;;;;;0.88;100.00;96187.25;5013730;28;20073;-80
2021/12/20 09:23:56;;;;;;;28.65;10.95;;;;;;;0.80;100.00;96185.59;4995919;28;20050;-79
2021/12/20 09:26:22;;;;;;;30.63;10.63;;;;;;;0.77;100.00;96191.19;5009811;28;20050;-79
2021/12/20 09:28:48;;;;;;;30.88;10.75;;;;;;;0.93;100.00;96197.06;4997764;28;20133;-79
2021/12/20 09:31:13;;;;;;;31.52;10.82;;;;;;;0.92;100.00;96198.03;5014185;28;20053;-79
2021/12/20 09:33:39;;;;;;;27.10;11.00;;;;;;;0.77;100.00;96191.19;4988987;28;20048;-80
2021/12/20 09:36:06;;;;;;;28.27;10.63;;;;;;;0.83;100.00;96189.63;5011823;28;20129;-79
2021/12/20 09:38:32;;;;;;;29.83;10.82;;;;;;;0.87;100.00;96201.22;4996092;28;20042;-79
2021/12/20 09:43:48;;;;;;;35.42;10.63;;;;;;;0.97;100.00;96195.69;5000797;28;20092;-79
2021/12/20 09:46:16;;;;;;;31.02;10.73;;;;;;;0.98;100.00;96194.69;5005817;28;20046;-79
2021/12/20 09:48:44;;;;;;;28.30;10.52;;;;;;;0.82;100.00;96194.00;5011981;28;20042;-80
2021/12/20 09:51:10;;;;;;;28.63;10.55;;;;;;;0.98;100.00;96187.72;5010461;28;20057;-79
2021/12/20 09:53:35;;;;;;;29.75;10.70;;;;;;;1.09;100.00;96194.13;4995876;28;20054;-79
2021/12/20 09:56:01;;;;;;;28.85;10.45;;;;;;;1.10;100.00;96185.38;4996056;28;20046;-79
2021/12/20 09:58:33;;;;;;;29.25;11.13;;;;;;;1.21;100.00;96187.41;5011785;28;20046;-76
2021/12/20 10:00:59;;;;;;;29.55;10.43;;;;;;;1.26;100.00;96188.63;5012260;28;20042;-78
2021/12/20 10:03:24;;;;;;;30.30;11.10;;;;;;;1.13;100.00;96179.78;4994022;28;20050;-80
2021/12/20 10:05:55;;;;;;;33.88;10.63;;;;;;;1.19;100.00;96179.03;5004208;28;20049;-80
2021/12/20 10:08:31;;;;;;;29.67;11.02;;;;;;;1.10;100.00;96182.78;5014631;28;20052;-79
2021/12/20 10:10:57;;;;;;;26.75;10.73;;;;;;;1.05;100.00;96182.56;4993065;28;20046;-79
2021/12/20 10:13:26;;;;;;;25.10;9.82;;;;;;;1.27;100.00;96190.25;4994757;28;20046;-78
2021/12/20 10:15:54;;;;;;;30.80;11.07;;;;;;;1.13;100.00;96190.16;4992320;28;20060;-78
2021/12/20 10:18:21;;;;;;;26.35;9.93;;;;;;;1.10;100.00;96180.19;4993989;28;20125;-79
2021/12/20 10:20:52;;;;;;;32.30;11.38;;;;;;;1.20;100.00;96185.81;5006710;28;20072;-79
2021/12/20 10:23:27;;;;;;;28.25;10.35;;;;;;;1.35;100.00;96183.09;4999172;28;20562;-79
2021/12/20 10:26:02;;;;;;;27.63;10.23;;;;;;;1.49;100.00;96183.91;4992824;28;20727;-78
2021/12/20 10:28:36;;;;;;;28.48;11.20;;;;;;;1.39;100.00;96173.13;5015564;28;20061;-78
2021/12/20 10:31:08;;;;;;;29.65;11.57;;;;;;;1.38;100.00;96179.31;4979318;28;20053;-78
2021/12/20 10:33:35;;;;;;;29.92;10.75;;;;;;;1.54;100.00;96160.78;5012735;28;20034;-77
2021/12/20 10:36:04;;;;;;;32.75;10.98;;;;;;;1.59;100.00;96169.78;5010767;28;20396;-78
2021/12/20 10:38:38;;;;;;;30.85;10.50;;;;;;;1.62;100.00;96177.19;5010513;28;20038;-78
2021/12/20 10:41:12;;;;;;;32.35;11.38;;;;;;;1.73;100.00;96168.81;4997820;28;20049;-76
2021/12/20 10:44:00;;;;;;;32.28;12.13;;;;;;;1.54;100.00;96171.16;5004710;28;20052;-78
2021/12/20 10:46:36;;;;;;;29.08;11.00;;;;;;;1.65;100.00;96171.59;5012936;28;20050;-79
2021/12/20 10:49:18;;;;;;;29.35;10.82;;;;;;;1.52;100.00;96167.16;5011167;28;20050;-76
2021/12/20 10:51:49;;;;;;;28.63;10.70;;;;;;;1.72;100.00;96162.03;5008418;28;20042;-76
2021/12/20 10:54:18;;;;;;;32.78;11.27;;;;;;;1.53;100.00;96166.97;5010465;28;20093;-77
2021/12/20 10:56:57;;;;;;;33.50;10.93;;;;;;;1.61;100.00;96170.38;5000762;28;20072;-77
2021/12/20 10:59:35;;;;;;;27.55;9.90;;;;;;;1.56;99.73;96153.59;5007889;28;20053;-79
2021/12/20 11:04:52;;;;;;;26.92;10.57;;;;;;;1.53;100.00;96161.78;5005819;28;20744;-77
2021/12/20 11:09:49;;;;;;;30.13;9.90;;;;;;;1.51;100.00;96166.38;5004794;28;20731;-78
2021/12/20 11:12:35;;;;;;;29.50;10.00;;;;;;;1.41;100.00;96159.94;4987124;28;20049;-78
2021/12/20 11:15:12;;;;;;;28.75;10.35;;;;;;;1.32;100.00;96161.91;5005779;28;20092;-77
2021/12/20 11:17:44;;;;;;;30.50;11.23;;;;;;;1.28;100.00;96150.34;5010042;28;20064;-77
2021/12/20 11:20:10;;;;;;;32.25;11.18;;;;;;;1.35;100.00;96158.94;4996331;28;20105;-79
2021/12/20 11:22:35;;;;;;;29.40;11.07;;;;;;;1.39;100.00;96160.16;4980836;28;20046;-79
2021/12/20 11:25:07;;;;;;;30.33;10.75;;;;;;;1.36;100.00;96157.94;4992762;28;20491;-78
2021/12/20 11:27:36;;;;;;;26.40;9.75;;;;;;;1.31;100.00;96155.16;5009762;28;20123;-77
2021/12/20 11:30:15;;;;;;;27.83;10.27;;;;;;;1.44;100.00;96165.56;4992815;28;20410;-78
2021/12/20 11:32:42;;;;;;;27.33;10.68;;;;;;;1.33;100.00;96163.53;4987501;28;20076;-76
2021/12/20 11:35:08;;;;;;;29.27;11.32;;;;;;;1.30;100.00;96158.72;4991537;28;20065;-79
2021/12/20 11:37:35;;;;;;;33.03;11.30;;;;;;;1.31;100.00;96160.34;4995273;28;20555;-78
2021/12/20 11:40:06;;;;;;;25.35;11.27;;;;;;;1.31;100.00;96152.56;5009075;28;20050;-80
2021/12/20 11:42:32;;;;;;;24.83;9.30;;;;;;;1.33;100.00;96153.16;5008876;28;20049;-78
2021/12/20 11:45:00;;;;;;;26.88;10.95;;;;;;;1.25;99.59;96156.72;5006570;28;20038;-78
2021/12/20 11:47:26;;;;;;;24.88;9.45;;;;;;;1.25;100.00;96156.72;5009245;28;20455;-77